createdAt,value
2019-04-10T00:01:27.848Z,14.00
2019-04-10T00:04:00.609Z,14.00
2019-04-10T00:06:34.001Z,14.00
2019-04-10T00:09:08.431Z,13.90
2019-04-10T00:11:40.989Z,14.10
2019-04-10T00:14:12.855Z,14.10
2019-04-10T00:16:46.691Z,14.10
2019-04-10T00:19:18.772Z,13.90
2019-04-10T00:21:50.765Z,14.00
2019-04-10T00:24:22.633Z,14.10
2019-04-10T00:26:54.597Z,14.00
2019-04-10T00:29:26.457Z,14.00
2019-04-10T00:32:01.324Z,14.40
2019-04-10T00:34:32.022Z,14.10
2019-04-10T00:37:04.090Z,13.80
2019-04-10T00:39:36.929Z,13.80
2019-04-10T00:42:09.241Z,13.70
2019-04-10T00:44:42.208Z,13.80
2019-04-10T00:47:14.888Z,13.70
2019-04-10T00:49:46.955Z,13.70
2019-04-10T00:52:19.753Z,13.80
2019-04-10T00:54:51.746Z,13.90
2019-04-10T00:57:23.896Z,14.00
2019-04-10T00:59:56.722Z,13.90
2019-04-10T01:02:29.152Z,14.00
2019-04-10T01:05:00.982Z,14.20
2019-04-10T01:07:39.849Z,14.10
2019-04-10T01:10:08.786Z,14.40
2019-04-10T01:12:40.905Z,14.30
2019-04-10T01:15:12.857Z,14.50
2019-04-10T01:17:44.931Z,14.20
2019-04-10T01:20:17.615Z,14.40
2019-04-10T01:22:49.985Z,14.60
2019-04-10T01:25:22.078Z,14.40
2019-04-10T01:27:54.341Z,14.70
2019-04-10T01:30:26.397Z,14.70
2019-04-10T01:32:58.573Z,14.60
2019-04-10T01:35:30.603Z,14.60
2019-04-10T01:38:04.641Z,14.70
2019-04-10T01:40:37.305Z,14.60
2019-04-10T01:43:14.519Z,14.50
2019-04-10T01:45:44.020Z,14.60
2019-04-10T01:48:16.074Z,14.60
2019-04-10T01:50:47.773Z,14.50
2019-04-10T01:53:19.806Z,14.70
2019-04-10T01:55:51.796Z,14.70
2019-04-10T01:58:25.280Z,14.80
2019-04-10T02:01:18.960Z,14.70
2019-04-10T02:03:52.044Z,14.90
2019-04-10T02:06:23.903Z,14.90
2019-04-10T02:08:56.339Z,15.00
2019-04-10T02:11:28.529Z,14.70
2019-04-10T02:14:00.471Z,15.00
2019-04-10T02:16:32.627Z,15.10
2019-04-10T02:19:06.000Z,15.10
2019-04-10T02:21:38.090Z,15.20
2019-04-10T02:24:11.117Z,15.10
2019-04-10T02:26:43.474Z,15.00
2019-04-10T02:29:15.660Z,15.60
2019-04-10T02:31:48.494Z,15.30
2019-04-10T02:34:21.497Z,15.20
2019-04-10T02:36:55.344Z,15.20
2019-04-10T02:39:37.384Z,15.30
2019-04-10T02:42:02.850Z,15.80
2019-04-10T02:44:35.509Z,15.20
2019-04-10T02:47:07.463Z,15.30
2019-04-10T02:49:40.396Z,15.30
2019-04-10T02:52:13.011Z,15.30
2019-04-10T02:54:46.298Z,15.20
2019-04-10T02:57:19.426Z,15.20
2019-04-10T02:59:53.680Z,15.20
2019-04-10T03:02:26.684Z,15.30
2019-04-10T03:04:59.406Z,15.20
2019-04-10T03:07:31.873Z,15.20
2019-04-10T03:10:15.348Z,15.40
2019-04-10T03:12:38.747Z,15.20
2019-04-10T03:15:12.745Z,15.10
2019-04-10T03:17:44.868Z,15.20
2019-04-10T03:20:18.417Z,15.10
2019-04-10T03:22:51.358Z,15.20
2019-04-10T03:25:24.555Z,15.20
2019-04-10T03:27:56.665Z,15.30
2019-04-10T03:30:29.687Z,15.80
2019-04-10T03:33:24.626Z,15.40
2019-04-10T03:35:54.909Z,15.30
2019-04-10T03:38:26.928Z,15.30
2019-04-10T03:40:59.793Z,15.10
2019-04-10T03:43:33.947Z,15.10
2019-04-10T03:46:06.174Z,15.00
2019-04-10T03:48:38.913Z,14.90
2019-04-10T03:51:12.261Z,14.90
2019-04-10T03:53:44.539Z,14.70
2019-04-10T03:56:18.055Z,14.80
2019-04-10T03:58:50.168Z,14.70
2019-04-10T04:01:22.978Z,14.70
2019-04-10T04:03:55.225Z,14.70
2019-04-10T04:06:27.893Z,14.60
2019-04-10T04:09:05.607Z,14.60
2019-04-10T04:11:34.832Z,14.60
2019-04-10T04:14:08.256Z,14.70
2019-04-10T04:16:41.325Z,14.70
2019-04-10T04:19:13.571Z,14.70
2019-04-10T04:21:45.728Z,14.70
2019-04-10T04:24:17.868Z,14.70
2019-04-10T04:26:50.802Z,14.90
2019-04-10T04:29:23.161Z,14.70
2019-04-10T04:31:55.235Z,14.90
2019-04-10T04:34:27.296Z,14.90
2019-04-10T04:37:00.337Z,15.10
2019-04-10T04:39:33.037Z,15.20
2019-04-10T04:42:05.353Z,15.50
2019-04-10T04:44:37.654Z,15.50
2019-04-10T04:47:09.890Z,15.60
2019-04-10T04:49:42.103Z,15.80
2019-04-10T04:52:16.174Z,15.80
2019-04-10T04:54:49.833Z,15.80
2019-04-10T04:57:22.634Z,15.60
2019-04-10T04:59:54.854Z,15.90
2019-04-10T05:02:28.088Z,16.10
2019-04-10T05:05:00.407Z,16.10
2019-04-10T05:07:33.292Z,16.00
2019-04-10T05:10:07.041Z,16.00
2019-04-10T05:12:39.301Z,16.10
2019-04-10T05:15:11.408Z,16.10
2019-04-10T05:17:43.379Z,15.70
2019-04-10T05:20:15.233Z,15.60
2019-04-10T05:22:47.203Z,15.40
2019-04-10T05:25:19.095Z,15.30
2019-04-10T05:27:51.129Z,15.00
2019-04-10T05:30:23.222Z,15.00
2019-04-10T05:32:55.697Z,14.60
2019-04-10T05:35:27.866Z,15.20
2019-04-10T05:38:00.433Z,15.40
2019-04-10T05:40:33.236Z,15.70
2019-04-10T05:43:05.942Z,15.40
2019-04-10T05:45:38.037Z,15.20
2019-04-10T05:48:11.096Z,15.00
2019-04-10T05:50:53.093Z,15.00
2019-04-10T05:53:16.912Z,14.70
2019-04-10T05:55:49.368Z,14.90
2019-04-10T05:58:21.800Z,15.20
2019-04-10T06:00:54.937Z,15.20
2019-04-10T06:03:26.916Z,15.10
2019-04-10T06:06:00.978Z,15.00
2019-04-10T06:08:33.711Z,14.70
2019-04-10T06:11:06.673Z,14.70
2019-04-10T06:13:39.080Z,15.10
2019-04-10T06:16:11.858Z,15.00
2019-04-10T06:18:45.154Z,14.80
2019-04-10T06:21:17.199Z,14.90
2019-04-10T06:23:49.856Z,14.50
2019-04-10T06:26:21.991Z,14.40
2019-04-10T06:28:54.744Z,14.30
2019-04-10T06:31:28.392Z,14.20
2019-04-10T06:34:00.856Z,14.20
2019-04-10T06:36:33.407Z,14.60
2019-04-10T06:39:07.248Z,14.10
2019-04-10T06:41:39.133Z,13.90
2019-04-10T06:44:12.274Z,13.80
2019-04-10T06:46:44.554Z,14.30
2019-04-10T06:49:17.937Z,14.00
2019-04-10T06:51:49.838Z,13.50
2019-04-10T06:54:22.760Z,13.80
2019-04-10T06:56:54.726Z,13.60
2019-04-10T06:59:26.881Z,13.50
2019-04-10T07:02:14.134Z,13.50
2019-04-10T07:04:44.161Z,13.80
2019-04-10T07:07:11.280Z,13.30
2019-04-10T07:09:40.735Z,13.80
2019-04-10T07:12:12.988Z,13.20
2019-04-10T07:14:48.183Z,13.00
2019-04-10T07:17:18.516Z,13.00
2019-04-10T07:19:51.332Z,13.10
2019-04-10T07:22:23.337Z,13.30
2019-04-10T07:24:56.371Z,13.30
2019-04-10T07:27:28.325Z,12.70
2019-04-10T07:30:01.475Z,13.20
2019-04-10T07:32:36.072Z,13.30
2019-04-10T07:35:11.239Z,13.10
2019-04-10T07:37:44.444Z,13.70
2019-04-10T07:40:17.177Z,13.30
2019-04-10T07:42:49.040Z,13.20
2019-04-10T07:45:20.974Z,13.00
2019-04-10T07:47:53.948Z,13.00
2019-04-10T07:50:26.206Z,12.70
2019-04-10T07:52:58.196Z,13.10
2019-04-10T07:55:30.911Z,13.20
2019-04-10T07:58:03.127Z,12.70
2019-04-10T08:00:35.160Z,12.60
2019-04-10T08:03:08.226Z,12.60
2019-04-10T08:05:41.981Z,12.70
2019-04-10T08:08:13.836Z,12.80
2019-04-10T08:10:45.836Z,12.60
2019-04-10T08:13:17.637Z,13.20
2019-04-10T08:15:50.077Z,13.10
2019-04-10T08:18:23.269Z,12.90
2019-04-10T08:20:55.770Z,12.50
2019-04-10T08:23:28.132Z,13.10
2019-04-10T08:26:00.310Z,12.90
2019-04-10T08:28:33.376Z,12.60
2019-04-10T08:31:06.479Z,12.50
2019-04-10T08:33:38.765Z,12.90
2019-04-10T08:36:10.943Z,12.70
2019-04-10T08:38:43.216Z,13.10
2019-04-10T08:41:15.379Z,13.40
2019-04-10T08:43:48.101Z,13.30
2019-04-10T08:46:20.077Z,12.70
2019-04-10T08:48:52.030Z,12.70
2019-04-10T08:51:24.148Z,13.00
2019-04-10T08:53:56.830Z,12.90
2019-04-10T08:56:30.123Z,13.30
2019-04-10T08:59:03.387Z,13.20
2019-04-10T09:01:35.808Z,12.90
2019-04-10T09:04:07.872Z,13.10
2019-04-10T09:06:40.128Z,13.40
2019-04-10T09:09:12.959Z,13.00
2019-04-10T09:11:45.491Z,12.30
2019-04-10T09:14:17.316Z,12.30
2019-04-10T09:16:49.421Z,12.10
2019-04-10T09:19:22.151Z,12.00
2019-04-10T09:21:55.482Z,12.30
2019-04-10T09:24:27.945Z,12.10
2019-04-10T09:27:00.519Z,12.20
2019-04-10T09:29:32.609Z,11.90
2019-04-10T09:32:04.623Z,11.90
2019-04-10T09:34:36.733Z,11.30
2019-04-10T09:37:08.826Z,11.20
2019-04-10T09:39:41.306Z,12.60
2019-04-10T09:42:13.585Z,12.60
2019-04-10T09:44:46.312Z,11.90
2019-04-10T09:47:18.716Z,12.40
2019-04-10T09:49:51.381Z,11.80
2019-04-10T09:52:23.759Z,11.70
2019-04-10T09:54:55.709Z,11.80
2019-04-10T09:57:28.722Z,12.30
2019-04-10T10:00:00.969Z,12.40
2019-04-10T10:02:35.760Z,11.80
2019-04-10T10:05:08.472Z,11.80
2019-04-10T10:07:41.047Z,11.10
2019-04-10T10:10:15.060Z,11.50
2019-04-10T10:12:48.409Z,12.10
2019-04-10T10:15:21.067Z,11.90
2019-04-10T10:17:53.146Z,12.00
2019-04-10T10:20:25.948Z,11.70
2019-04-10T10:22:58.293Z,11.30
2019-04-10T10:25:31.181Z,12.20
2019-04-10T10:28:04.985Z,11.50
2019-04-10T10:30:37.801Z,11.90
2019-04-10T10:33:09.932Z,12.20
2019-04-10T10:35:43.092Z,12.40
2019-04-10T10:38:15.186Z,12.20
2019-04-10T10:40:47.395Z,12.30
2019-04-10T10:43:20.439Z,11.40
2019-04-10T10:45:53.401Z,11.70
2019-04-10T10:48:25.604Z,11.00
2019-04-10T10:50:58.253Z,10.90
2019-04-10T10:53:32.400Z,12.20
2019-04-10T10:56:04.341Z,11.40
2019-04-10T10:58:37.555Z,11.90
2019-04-10T11:01:09.715Z,11.30
2019-04-10T11:03:42.527Z,11.70
2019-04-10T11:06:16.146Z,11.70
2019-04-10T11:08:48.885Z,12.40
2019-04-10T11:11:20.739Z,11.50
2019-04-10T11:13:52.940Z,12.20
2019-04-10T11:16:24.871Z,11.50
2019-04-10T11:18:57.641Z,11.30
2019-04-10T11:21:30.051Z,11.60
2019-04-10T11:24:03.072Z,11.40
2019-04-10T11:26:36.173Z,11.70
2019-04-10T11:29:09.919Z,12.30
2019-04-10T11:31:41.907Z,11.90
2019-04-10T11:34:14.165Z,10.80
2019-04-10T11:36:46.385Z,11.60
2019-04-10T11:41:52.732Z,10.30
2019-04-10T11:44:27.282Z,11.00
2019-04-10T11:46:58.947Z,11.70
2019-04-10T11:49:32.934Z,11.80
2019-04-10T11:52:06.242Z,11.60
2019-04-10T11:54:41.357Z,11.00
2019-04-10T11:57:13.305Z,11.20
2019-04-10T11:59:48.850Z,11.40
2019-04-10T12:02:21.887Z,10.50
2019-04-10T12:04:57.681Z,10.40
2019-04-10T12:07:55.055Z,11.40
2019-04-10T12:12:35.381Z,11.20
2019-04-10T12:15:08.792Z,10.90
2019-04-10T12:17:40.616Z,10.40
2019-04-10T12:20:13.162Z,10.30
2019-04-10T12:22:46.190Z,10.20
2019-04-10T12:25:18.730Z,10.60
2019-04-10T12:27:51.578Z,10.90
2019-04-10T12:30:23.608Z,10.90
2019-04-10T12:32:55.509Z,10.30
2019-04-10T12:35:27.738Z,10.60
2019-04-10T12:38:03.750Z,9.70
2019-04-10T12:40:35.176Z,9.60
2019-04-10T12:43:10.512Z,9.60
2019-04-10T12:45:42.635Z,9.50
2019-04-10T12:48:14.819Z,9.40
2019-04-10T12:50:47.501Z,9.80
2019-04-10T12:53:19.826Z,9.40
2019-04-10T12:55:51.925Z,9.90
2019-04-10T12:58:23.974Z,9.90
2019-04-10T13:00:56.397Z,10.40
2019-04-10T13:03:29.385Z,9.80
2019-04-10T13:06:01.919Z,9.40
2019-04-10T13:08:51.112Z,10.00
2019-04-10T13:11:07.839Z,10.30
2019-04-10T13:13:39.683Z,10.00
2019-04-10T13:16:11.971Z,9.10
2019-04-10T13:18:44.758Z,9.00
2019-04-10T13:21:18.027Z,8.70
2019-04-10T13:23:50.300Z,8.20
2019-04-10T13:26:22.343Z,7.80
2019-04-10T13:28:54.365Z,7.60
2019-04-10T13:31:27.650Z,7.20
2019-04-10T13:34:00.722Z,6.70
2019-04-10T13:36:33.792Z,6.20
2019-04-10T13:39:07.187Z,6.20
2019-04-10T13:41:40.706Z,6.30
2019-04-10T13:44:14.151Z,6.40
2019-04-10T13:46:48.980Z,6.60
2019-04-10T13:49:22.009Z,6.30
2019-04-10T13:51:54.379Z,5.80
2019-04-10T13:54:26.467Z,6.10
2019-04-10T13:56:58.781Z,6.20
2019-04-10T13:59:31.184Z,6.20
2019-04-10T14:02:05.242Z,5.90
2019-04-10T14:04:37.247Z,5.70
2019-04-10T14:07:09.572Z,5.90
2019-04-10T14:09:47.122Z,5.40
2019-04-10T14:12:16.628Z,5.60
2019-04-10T14:14:48.906Z,5.60
2019-04-10T14:17:21.526Z,6.10
2019-04-10T14:19:54.735Z,6.00
2019-04-10T14:22:27.049Z,6.50
2019-04-10T14:24:59.194Z,6.50
2019-04-10T14:27:32.325Z,6.90
2019-04-10T14:30:05.370Z,7.70
2019-04-10T14:32:39.734Z,8.10
2019-04-10T14:35:11.953Z,8.30
2019-04-10T14:37:43.883Z,8.80
2019-04-10T14:40:17.023Z,9.00
2019-04-10T14:42:51.380Z,9.50
2019-04-10T14:45:23.648Z,9.30
2019-04-10T14:47:56.811Z,9.50
2019-04-10T14:50:29.560Z,10.30
2019-04-10T14:53:01.919Z,10.10
2019-04-10T14:55:34.245Z,10.50
2019-04-10T14:58:18.995Z,10.40
2019-04-10T15:00:51.163Z,10.50
2019-04-10T15:03:24.473Z,10.70
2019-04-10T15:05:58.271Z,10.70
2019-04-10T15:08:31.454Z,10.90
2019-04-10T15:11:04.529Z,10.70
2019-04-10T15:13:37.985Z,11.30
2019-04-10T15:16:10.095Z,11.30
2019-04-10T15:18:43.558Z,11.90
2019-04-10T15:21:15.918Z,11.10
2019-04-10T15:23:48.114Z,11.20
2019-04-10T15:26:20.496Z,11.00
2019-04-10T15:28:52.426Z,10.80
2019-04-10T15:31:27.202Z,11.30
2019-04-10T15:33:58.151Z,11.10
2019-04-10T15:36:30.283Z,11.70
2019-04-10T15:39:02.379Z,11.70
2019-04-10T15:41:36.042Z,11.40
2019-04-10T15:44:09.872Z,11.50
2019-04-10T15:46:42.186Z,11.50
2019-04-10T15:49:15.294Z,12.20
2019-04-10T15:51:47.583Z,11.80
2019-04-10T15:54:19.938Z,11.80
2019-04-10T15:56:52.777Z,11.60
2019-04-10T15:59:24.924Z,11.50
2019-04-10T16:01:57.332Z,11.60
2019-04-10T16:04:29.631Z,11.90
2019-04-10T16:07:02.115Z,12.00
2019-04-10T16:09:44.899Z,12.10
2019-04-10T16:12:14.529Z,12.30
2019-04-10T16:14:46.680Z,12.30
2019-04-10T16:17:37.690Z,12.60
2019-04-10T16:20:25.266Z,12.60
2019-04-10T16:23:14.591Z,12.70
2019-04-10T16:25:52.370Z,12.70
2019-04-10T16:28:26.989Z,12.70
2019-04-10T16:31:01.323Z,12.50
2019-04-10T16:33:33.542Z,12.30
2019-04-10T16:36:06.080Z,12.60
2019-04-10T16:38:38.527Z,12.80
2019-04-10T16:41:10.866Z,12.80
2019-04-10T16:43:43.020Z,12.70
2019-04-10T16:46:15.350Z,12.80
2019-04-10T16:48:48.363Z,12.60
2019-04-10T16:51:20.978Z,12.70
2019-04-10T16:53:53.739Z,13.30
2019-04-10T16:56:26.001Z,12.90
2019-04-10T16:58:58.464Z,12.80
2019-04-10T17:01:30.984Z,12.90
2019-04-10T17:04:03.182Z,12.80
2019-04-10T17:06:36.459Z,12.70
2019-04-10T17:09:10.859Z,13.00
2019-04-10T17:11:43.508Z,13.00
2019-04-10T17:14:17.390Z,13.00
2019-04-10T17:16:50.300Z,12.80
2019-04-10T17:19:22.195Z,12.80
2019-04-10T17:21:54.353Z,13.10
2019-04-10T17:24:27.287Z,13.00
2019-04-10T17:26:59.529Z,13.00
2019-04-10T17:29:31.643Z,13.00
2019-04-10T17:32:04.712Z,12.80
2019-04-10T17:34:36.723Z,13.00
2019-04-10T17:37:09.723Z,13.10
2019-04-10T17:39:41.841Z,13.00
2019-04-10T17:42:14.522Z,13.00
2019-04-10T17:44:47.799Z,13.20
2019-04-10T17:47:20.781Z,13.30
2019-04-10T17:49:54.066Z,13.30
2019-04-10T17:52:27.138Z,13.40
2019-04-10T17:54:59.340Z,13.40
2019-04-10T17:57:38.178Z,13.40
2019-04-10T18:00:09.027Z,13.20
2019-04-10T18:02:43.087Z,13.40
2019-04-10T18:05:15.199Z,13.30
2019-04-10T18:07:47.975Z,13.30
2019-04-10T18:10:20.366Z,13.50
2019-04-10T18:12:52.789Z,13.20
2019-04-10T18:15:26.076Z,13.40
2019-04-10T18:17:58.138Z,13.50
2019-04-10T18:20:29.947Z,13.40
2019-04-10T18:23:02.911Z,13.40
2019-04-10T18:25:36.086Z,13.40
2019-04-10T18:28:09.508Z,13.20
2019-04-10T18:30:41.848Z,13.30
2019-04-10T18:33:14.212Z,13.40
2019-04-10T18:35:47.058Z,13.30
2019-04-10T18:38:19.564Z,13.20
2019-04-10T18:40:58.600Z,13.30
2019-04-10T18:43:26.954Z,13.30
2019-04-10T18:46:10.233Z,13.30
2019-04-10T18:48:32.712Z,13.40
2019-04-10T18:51:06.596Z,13.40
2019-04-10T18:53:39.381Z,13.50
2019-04-10T18:56:11.625Z,13.40
2019-04-10T18:58:49.631Z,13.50
2019-04-10T19:01:39.538Z,13.60
2019-04-10T19:04:18.751Z,13.30
2019-04-10T19:06:56.538Z,13.40
2019-04-10T19:09:39.100Z,13.50
2019-04-10T19:12:11.043Z,13.50
2019-04-10T19:14:43.011Z,13.50
2019-04-10T19:17:17.043Z,13.60
2019-04-10T19:19:50.697Z,13.60
2019-04-10T19:22:24.244Z,13.60
2019-04-10T19:24:56.743Z,13.50
2019-04-10T19:27:28.842Z,13.60
2019-04-10T19:30:00.916Z,13.50
2019-04-10T19:32:37.382Z,13.70
2019-04-10T19:35:10.840Z,13.80
2019-04-10T19:37:42.883Z,13.70
2019-04-10T19:40:16.019Z,13.80
2019-04-10T19:42:49.267Z,13.80
2019-04-10T19:45:21.673Z,13.70
2019-04-10T19:47:54.660Z,13.60
2019-04-10T19:50:27.700Z,13.80
2019-04-10T19:53:00.510Z,13.70
2019-04-10T19:55:32.830Z,13.70
2019-04-10T19:58:05.938Z,13.70
2019-04-10T20:00:38.853Z,13.70
2019-04-10T20:03:11.201Z,13.60
2019-04-10T20:05:43.765Z,13.70
2019-04-10T20:08:15.596Z,13.60
2019-04-10T20:10:47.884Z,13.90
2019-04-10T20:13:20.635Z,13.60
2019-04-10T20:15:53.137Z,13.80
2019-04-10T20:18:26.338Z,13.90
2019-04-10T20:20:59.675Z,13.90
2019-04-10T20:23:32.060Z,14.00
2019-04-10T20:26:05.127Z,14.30
2019-04-10T20:28:37.078Z,13.80
2019-04-10T20:31:13.103Z,13.80
2019-04-10T20:33:45.236Z,13.90
2019-04-10T20:36:17.357Z,13.70
2019-04-10T20:38:50.264Z,13.80
2019-04-10T20:41:22.731Z,13.70
2019-04-10T20:43:55.388Z,13.70
2019-04-10T20:46:28.467Z,13.50
2019-04-10T20:49:00.608Z,13.50
2019-04-10T20:51:34.179Z,13.70
2019-04-10T20:54:06.556Z,13.70
2019-04-10T20:56:39.025Z,13.50
2019-04-10T20:59:11.968Z,13.60
2019-04-10T21:01:44.943Z,13.80
2019-04-10T21:04:17.045Z,13.80
2019-04-10T21:06:50.147Z,14.00
2019-04-10T21:09:21.981Z,14.00
2019-04-10T21:12:02.079Z,14.30
2019-04-10T21:14:27.637Z,14.40
2019-04-10T21:17:00.385Z,14.60
2019-04-10T21:19:33.456Z,14.50
2019-04-10T21:22:05.958Z,14.80
2019-04-10T21:24:37.910Z,14.60
2019-04-10T21:27:11.203Z,14.80
2019-04-10T21:30:07.269Z,14.90
2019-04-10T21:32:47.484Z,14.80
2019-04-10T21:35:22.914Z,15.10
2019-04-10T21:37:56.917Z,15.60
2019-04-10T21:40:28.942Z,15.20
2019-04-10T21:43:01.597Z,15.00
2019-04-10T21:45:34.984Z,14.90
2019-04-10T21:48:07.058Z,15.20
2019-04-10T21:50:39.808Z,15.30
2019-04-10T21:53:12.231Z,15.50
2019-04-10T21:55:44.115Z,15.60
2019-04-10T21:58:16.417Z,15.60
2019-04-10T22:01:08.447Z,15.80
2019-04-10T22:03:41.478Z,16.00
2019-04-10T22:06:31.983Z,16.00
2019-04-10T22:09:39.067Z,16.00
2019-04-10T22:12:25.660Z,15.40
2019-04-10T22:14:52.516Z,15.90
2019-04-10T22:17:24.806Z,16.10
2019-04-10T22:19:57.042Z,15.60
2019-04-10T22:22:28.926Z,15.60
2019-04-10T22:25:01.267Z,15.80
2019-04-10T22:27:34.247Z,15.80
2019-04-10T22:30:08.318Z,15.70
2019-04-10T22:32:40.915Z,15.70
2019-04-10T22:35:13.228Z,15.90
2019-04-10T22:37:46.251Z,15.80
2019-04-10T22:40:19.323Z,15.70
2019-04-10T22:42:51.580Z,15.70
2019-04-10T22:45:34.566Z,16.20
2019-04-10T22:48:06.385Z,16.40
2019-04-10T22:50:38.658Z,15.80
2019-04-10T22:53:11.368Z,15.70
2019-04-10T22:55:45.089Z,15.90
2019-04-10T22:58:17.170Z,15.70
2019-04-10T23:00:50.839Z,15.70
2019-04-10T23:03:22.443Z,15.80
2019-04-10T23:05:54.477Z,15.80
2019-04-10T23:08:27.352Z,15.70
2019-04-10T23:10:59.845Z,15.70
2019-04-10T23:13:32.062Z,15.70
2019-04-10T23:16:08.149Z,15.70
2019-04-10T23:18:41.379Z,15.90
2019-04-10T23:21:14.497Z,15.70
2019-04-10T23:23:47.352Z,15.80
2019-04-10T23:26:20.776Z,15.90
2019-04-10T23:28:52.970Z,15.90
2019-04-10T23:31:25.723Z,15.80
2019-04-10T23:33:58.649Z,15.90
2019-04-10T23:36:31.888Z,15.80
2019-04-10T23:39:06.087Z,15.90
2019-04-10T23:41:38.260Z,15.50
2019-04-10T23:44:11.019Z,16.00
2019-04-10T23:46:43.323Z,15.90
2019-04-10T23:49:15.452Z,15.90
2019-04-10T23:51:47.536Z,16.50
2019-04-10T23:54:19.568Z,15.90
2019-04-10T23:56:52.629Z,16.00
2019-04-10T23:59:24.559Z,16.20
